createdAt,value
2024-03-13T00:02:51.015Z,10.75
2024-03-13T00:06:52.660Z,11.18
2024-03-13T00:10:54.419Z,11.65
2024-03-13T00:14:57.538Z,11.95
2024-03-13T00:18:59.508Z,10.63
2024-03-13T00:23:02.732Z,10.48
2024-03-13T00:27:04.779Z,10.93
2024-03-13T00:31:09.849Z,8.07
2024-03-13T00:35:14.993Z,11.15
2024-03-13T00:39:17.129Z,10.43
2024-03-13T00:43:19.443Z,9.30
2024-03-13T00:47:23.933Z,8.65
2024-03-13T00:51:25.533Z,10.65
2024-03-13T00:55:28.591Z,10.65
2024-03-13T00:59:31.237Z,8.65
2024-03-13T01:03:32.865Z,8.80
2024-03-13T01:07:36.023Z,9.18
2024-03-13T01:11:37.887Z,7.85
2024-03-13T01:15:39.537Z,7.18
2024-03-13T01:19:41.056Z,9.98
2024-03-13T01:23:42.915Z,8.43
2024-03-13T01:27:44.583Z,6.40
2024-03-13T01:31:46.127Z,8.63
2024-03-13T01:35:48.020Z,10.02
2024-03-13T01:39:50.240Z,9.15
2024-03-13T01:44:16.807Z,9.15
2024-03-13T01:48:37.247Z,10.27
2024-03-13T01:52:57.384Z,10.55
2024-03-13T01:57:13.793Z,7.00
2024-03-13T02:01:33.736Z,7.63
2024-03-13T02:05:39.021Z,8.60
2024-03-13T02:09:40.583Z,8.60
2024-03-13T02:13:42.146Z,8.63
2024-03-13T02:17:43.735Z,8.23
2024-03-13T02:21:48.433Z,8.45
2024-03-13T02:25:54.021Z,8.02
2024-03-13T02:29:55.574Z,8.60
2024-03-13T02:33:57.321Z,7.20
2024-03-13T02:37:58.774Z,7.78
2024-03-13T02:42:00.257Z,7.35
2024-03-13T02:46:03.299Z,7.18
2024-03-13T02:50:04.947Z,7.28
2024-03-13T02:54:07.008Z,9.57
2024-03-13T02:58:08.593Z,7.47
2024-03-13T03:02:10.737Z,9.23
2024-03-13T03:06:12.389Z,11.00
2024-03-13T03:10:14.211Z,8.02
2024-03-13T03:14:15.718Z,8.93
2024-03-13T03:18:19.178Z,8.38
2024-03-13T03:22:21.020Z,7.10
2024-03-13T03:26:22.593Z,9.35
2024-03-13T03:30:26.914Z,8.70
2024-03-13T03:34:28.431Z,9.35
2024-03-13T03:38:30.175Z,9.32
2024-03-13T03:42:31.636Z,7.38
2024-03-13T03:46:33.284Z,6.97
2024-03-13T03:50:34.853Z,9.95
2024-03-13T03:54:36.420Z,8.35
2024-03-13T03:58:37.945Z,9.20
2024-03-13T04:02:43.110Z,10.75
2024-03-13T04:06:44.998Z,7.95
2024-03-13T04:10:46.537Z,8.30
2024-03-13T04:14:48.068Z,10.48
2024-03-13T04:18:49.612Z,8.52
2024-03-13T04:22:51.681Z,7.93
2024-03-13T04:26:53.219Z,8.00
2024-03-13T04:30:55.120Z,8.43
2024-03-13T04:34:59.099Z,8.93
2024-03-13T04:39:01.100Z,9.95
2024-03-13T04:43:02.712Z,10.10
2024-03-13T04:47:04.317Z,7.53
2024-03-13T04:51:06.610Z,9.85
2024-03-13T04:55:08.344Z,11.65
2024-03-13T04:59:09.870Z,9.27
2024-03-13T05:03:11.795Z,11.27
2024-03-13T05:07:13.924Z,11.20
2024-03-13T05:11:15.883Z,11.65
2024-03-13T05:15:18.258Z,13.32
2024-03-13T05:19:20.506Z,10.30
2024-03-13T05:23:22.197Z,10.63
2024-03-13T05:27:24.034Z,10.65
2024-03-13T05:31:25.686Z,9.55
2024-03-13T05:35:27.442Z,12.65
2024-03-13T05:39:28.981Z,11.60
2024-03-13T05:43:30.480Z,10.32
2024-03-13T05:47:33.107Z,11.82
2024-03-13T05:51:36.422Z,9.63
2024-03-13T05:55:38.088Z,10.38
2024-03-13T05:59:39.581Z,9.82
2024-03-13T06:03:41.462Z,9.00
2024-03-13T06:07:43.082Z,10.27
2024-03-13T06:11:44.766Z,10.73
2024-03-13T06:15:46.435Z,9.18
2024-03-13T06:19:48.063Z,8.77
2024-03-13T06:23:49.787Z,9.82
2024-03-13T06:27:57.898Z,9.77
2024-03-13T06:32:01.980Z,9.10
2024-03-13T06:36:03.866Z,9.48
2024-03-13T06:40:05.881Z,9.05
2024-03-13T06:44:07.502Z,9.93
2024-03-13T06:48:09.374Z,9.63
2024-03-13T06:52:13.860Z,10.38
2024-03-13T06:56:16.158Z,12.02
2024-03-13T07:00:17.985Z,10.55
2024-03-13T07:04:19.977Z,10.25
2024-03-13T07:08:21.569Z,8.50
2024-03-13T07:12:24.427Z,8.93
2024-03-13T07:16:25.933Z,10.00
2024-03-13T07:20:27.611Z,9.27
2024-03-13T07:24:29.181Z,9.60
2024-03-13T07:28:33.842Z,15.43
2024-03-13T07:32:35.970Z,14.73
2024-03-13T07:36:38.941Z,10.52
2024-03-13T07:40:43.527Z,12.50
2024-03-13T07:44:46.757Z,11.60
2024-03-13T07:48:48.240Z,10.98
2024-03-13T07:52:50.353Z,9.77
2024-03-13T07:56:53.428Z,12.05
2024-03-13T08:00:54.927Z,8.68
2024-03-13T08:04:56.461Z,9.68
2024-03-13T09:09:39.436Z,4.72
2024-03-13T09:13:41.490Z,4.13
2024-03-13T09:17:43.427Z,4.13
2024-03-13T09:21:49.024Z,4.20
2024-03-13T09:25:50.544Z,4.13
2024-03-13T09:29:55.438Z,3.90
2024-03-13T09:33:57.119Z,4.13
2024-03-13T09:37:58.649Z,2.38
2024-03-13T09:42:00.586Z,3.60
2024-03-13T09:46:03.557Z,2.55
2024-03-13T09:50:08.123Z,3.13
2024-03-13T09:54:13.000Z,2.50
2024-03-13T09:58:16.520Z,2.47
2024-03-13T10:02:22.565Z,2.00
2024-03-13T10:06:27.133Z,3.55
2024-03-13T10:10:30.885Z,2.08
2024-03-13T10:14:33.153Z,2.40
2024-03-13T10:18:40.680Z,1.75
2024-03-13T10:22:42.196Z,1.58
2024-03-13T10:26:47.623Z,1.52
2024-03-13T10:30:49.198Z,1.20
2024-03-13T10:34:51.133Z,1.13
2024-03-13T10:38:54.408Z,1.20
2024-03-13T10:42:56.081Z,0.98
2024-03-13T10:47:00.282Z,1.50
2024-03-13T10:51:04.670Z,1.00
2024-03-13T10:55:09.632Z,1.25
2024-03-13T10:59:12.939Z,5.68
2024-03-13T11:03:14.593Z,1.02
2024-03-13T11:07:19.996Z,1.05
2024-03-13T11:11:23.631Z,1.10
2024-03-13T11:15:30.413Z,1.63
2024-03-13T11:19:34.505Z,2.53
2024-03-13T11:23:42.224Z,2.40
2024-03-13T11:27:49.819Z,1.02
2024-03-13T11:31:53.715Z,1.92
2024-03-13T11:35:56.490Z,1.45
2024-03-13T11:39:58.541Z,1.63
2024-03-13T11:44:00.154Z,1.67
2024-03-13T11:48:02.246Z,1.52
2024-03-13T11:52:04.263Z,1.65
2024-03-13T11:56:06.339Z,1.15
2024-03-13T12:00:22.018Z,2.00
2024-03-13T12:04:23.629Z,4.07
2024-03-13T12:08:25.143Z,1.52
2024-03-13T12:12:27.922Z,2.53
2024-03-13T12:16:29.467Z,4.13
2024-03-13T12:20:36.522Z,2.75
2024-03-13T12:24:38.479Z,1.13
2024-03-13T12:28:40.384Z,3.13
2024-03-13T12:32:41.954Z,2.28
2024-03-13T12:36:48.172Z,2.38
2024-03-13T12:40:49.628Z,3.75
2024-03-13T12:44:51.145Z,2.55
2024-03-13T12:48:52.735Z,5.30
2024-03-13T12:52:54.609Z,7.78
2024-03-13T12:56:56.569Z,9.90
2024-03-13T13:01:03.399Z,9.48
2024-03-13T13:05:06.858Z,9.32
2024-03-13T13:09:13.951Z,7.75
2024-03-13T13:13:15.492Z,12.63
2024-03-13T13:17:16.975Z,8.38
2024-03-13T13:21:18.439Z,5.82
2024-03-13T13:25:22.161Z,4.57
2024-03-13T13:29:24.511Z,6.80
2024-03-13T13:33:26.602Z,9.88
2024-03-13T13:37:28.553Z,11.48
2024-03-13T13:41:30.884Z,10.60
2024-03-13T13:45:33.219Z,5.45
2024-03-13T13:49:41.445Z,6.65
2024-03-13T13:53:43.020Z,6.85
2024-03-13T13:57:50.999Z,4.80
2024-03-13T14:01:56.479Z,5.80
2024-03-13T14:05:58.195Z,7.68
2024-03-13T14:10:00.187Z,10.30
2024-03-13T14:14:02.948Z,8.55
2024-03-13T14:18:11.202Z,5.95
2024-03-13T14:22:13.219Z,6.72
2024-03-13T14:26:15.012Z,8.98
2024-03-13T14:30:18.600Z,6.20
2024-03-13T14:34:21.672Z,13.77
2024-03-13T14:38:23.183Z,10.85
2024-03-13T14:46:33.494Z,14.50
2024-03-13T14:50:35.290Z,9.38
2024-03-13T14:54:36.800Z,10.63
2024-03-13T14:58:39.708Z,5.97
2024-03-13T15:02:42.286Z,6.97
2024-03-13T15:06:43.851Z,10.85
2024-03-13T15:10:45.475Z,5.50
2024-03-13T15:14:47.065Z,3.70
2024-03-13T15:18:49.253Z,4.65
2024-03-13T15:22:50.828Z,6.10
2024-03-13T15:26:52.653Z,4.80
2024-03-13T15:30:56.832Z,3.50
2024-03-13T15:34:58.693Z,2.45
2024-03-13T15:39:00.219Z,2.65
2024-03-13T15:43:03.968Z,2.10
2024-03-13T15:47:06.366Z,2.30
2024-03-13T15:51:08.057Z,4.15
2024-03-13T15:55:09.680Z,3.22
2024-03-13T15:59:13.882Z,1.77
2024-03-13T16:03:15.439Z,2.30
2024-03-13T16:07:17.290Z,4.00
2024-03-13T16:11:18.994Z,1.13
2024-03-13T16:15:20.860Z,1.77
2024-03-13T16:19:22.577Z,1.60
2024-03-13T16:23:24.426Z,4.45
2024-03-13T16:27:26.055Z,7.28
2024-03-13T16:31:27.720Z,1.42
2024-03-13T16:35:29.411Z,4.13
2024-03-13T16:39:31.083Z,3.50
2024-03-13T16:43:33.396Z,1.70
2024-03-13T16:47:35.549Z,2.80
2024-03-13T16:51:37.518Z,3.65
2024-03-13T16:55:39.038Z,3.47
2024-03-13T16:59:40.563Z,1.85
2024-03-13T17:03:43.503Z,2.63
2024-03-13T17:07:45.327Z,2.90
2024-03-13T17:11:47.112Z,2.00
2024-03-13T17:15:48.636Z,2.38
2024-03-13T17:19:52.328Z,2.20
2024-03-13T17:23:54.238Z,1.45
2024-03-13T17:27:55.800Z,1.70
2024-03-13T17:31:58.344Z,1.30
2024-03-13T17:35:59.958Z,0.80
2024-03-13T17:40:01.926Z,2.20
2024-03-13T17:44:05.295Z,2.25
2024-03-13T17:48:10.364Z,1.75
2024-03-13T17:52:12.282Z,2.40
2024-03-13T17:56:13.986Z,4.28
2024-03-13T18:00:17.200Z,2.45
2024-03-13T18:04:20.039Z,1.52
2024-03-13T18:08:21.576Z,1.65
2024-03-13T18:12:24.633Z,2.10
2024-03-13T18:16:26.772Z,3.95
2024-03-13T18:20:31.056Z,2.03
2024-03-13T18:24:32.613Z,1.83
2024-03-13T18:28:34.228Z,1.80
2024-03-13T18:32:44.082Z,3.55
2024-03-13T18:36:48.488Z,1.80
2024-03-13T18:40:50.032Z,3.58
2024-03-13T18:44:51.742Z,1.23
2024-03-13T18:48:53.296Z,3.17
2024-03-13T18:52:55.022Z,4.03
2024-03-13T18:56:56.584Z,1.80
2024-03-13T19:00:58.080Z,1.60
2024-03-13T19:05:03.207Z,2.03
2024-03-13T19:09:11.969Z,2.42
2024-03-13T19:13:13.578Z,3.20
2024-03-13T19:17:15.117Z,1.90
2024-03-13T19:21:16.908Z,2.58
2024-03-13T19:25:18.665Z,1.13
2024-03-13T19:29:20.139Z,2.55
2024-03-13T19:33:21.909Z,2.35
2024-03-13T19:37:23.473Z,2.00
2024-03-13T19:41:25.398Z,2.83
2024-03-13T19:45:27.419Z,2.13
2024-03-13T19:49:28.981Z,2.13
2024-03-13T19:53:30.489Z,2.65
2024-03-13T19:57:31.966Z,1.13
2024-03-13T20:01:34.380Z,2.47
2024-03-13T20:05:36.507Z,1.98
2024-03-13T20:09:39.607Z,1.98
2024-03-13T20:13:42.940Z,1.63
2024-03-13T20:17:45.065Z,2.80
2024-03-13T20:21:47.706Z,2.63
2024-03-13T20:25:49.292Z,2.03
2024-03-13T20:29:50.874Z,2.47
2024-03-13T20:33:52.685Z,1.92
2024-03-13T20:37:54.930Z,3.30
2024-03-13T20:41:56.523Z,2.47
2024-03-13T20:45:58.991Z,4.20
2024-03-13T20:50:01.906Z,2.88
2024-03-13T20:54:06.127Z,3.17
2024-03-13T20:58:08.644Z,2.90
2024-03-13T21:02:10.305Z,1.70
2024-03-13T21:06:11.935Z,1.65
2024-03-13T21:10:15.257Z,2.15
2024-03-13T21:14:17.777Z,2.55
2024-03-13T21:18:21.120Z,1.27
2024-03-13T21:22:22.648Z,2.20
2024-03-13T21:26:24.260Z,4.50
2024-03-13T21:30:25.809Z,2.03
2024-03-13T21:34:32.468Z,1.35
2024-03-13T21:38:37.835Z,1.95
2024-03-13T21:42:40.375Z,1.52
2024-03-13T21:46:41.846Z,2.35
2024-03-13T21:50:43.980Z,3.60
2024-03-13T21:54:45.643Z,1.88
2024-03-13T21:58:47.102Z,2.10
2024-03-13T22:02:48.869Z,1.75
2024-03-13T22:06:53.170Z,1.92
2024-03-13T22:10:54.990Z,2.33
2024-03-13T22:14:56.527Z,1.88
2024-03-13T22:19:00.811Z,2.50
2024-03-13T22:23:03.826Z,1.80
2024-03-13T22:27:05.361Z,2.50
2024-03-13T22:31:07.258Z,2.47
2024-03-13T22:35:08.875Z,2.60
2024-03-13T22:39:11.934Z,2.15
2024-03-13T22:43:13.427Z,2.92
2024-03-13T22:47:16.095Z,2.53
2024-03-13T22:51:17.774Z,2.33
2024-03-13T22:55:19.319Z,2.20
2024-03-13T22:59:21.037Z,2.40
2024-03-13T23:03:22.621Z,4.07
2024-03-13T23:07:27.302Z,2.70
2024-03-13T23:11:28.884Z,2.60
2024-03-13T23:15:31.118Z,2.38
2024-03-13T23:19:32.691Z,2.38
2024-03-13T23:23:34.195Z,4.45
2024-03-13T23:27:37.726Z,2.38
2024-03-13T23:31:43.668Z,2.05
2024-03-13T23:35:45.254Z,2.17
2024-03-13T23:39:46.719Z,2.28
2024-03-13T23:43:48.208Z,1.77
2024-03-13T23:47:49.782Z,4.35
2024-03-13T23:51:51.286Z,2.42
2024-03-13T23:55:52.961Z,2.72
2024-03-13T23:59:54.490Z,2.35
